createdAt,value
2019-03-04T00:01:28.311Z,91.30
2019-03-04T00:03:59.117Z,90.90
2019-03-04T00:06:29.783Z,90.90
2019-03-04T00:09:00.578Z,90.30
2019-03-04T00:11:32.821Z,90.50
2019-03-04T00:14:03.882Z,90.60
2019-03-04T00:16:34.561Z,90.30
2019-03-04T00:19:05.318Z,90.20
2019-03-04T00:21:36.070Z,89.90
2019-03-04T00:24:07.017Z,90.00
2019-03-04T00:26:40.768Z,89.70
2019-03-04T00:29:11.504Z,90.10
2019-03-04T00:31:42.305Z,89.90
2019-03-04T00:34:13.073Z,89.60
2019-03-04T00:36:43.867Z,88.90
2019-03-04T00:39:14.847Z,89.00
2019-03-04T00:41:45.594Z,89.20
2019-03-04T00:44:17.374Z,89.80
2019-03-04T00:46:49.169Z,89.50
2019-03-04T00:49:19.879Z,89.00
2019-03-04T00:51:50.609Z,88.40
2019-03-04T00:54:21.487Z,87.90
2019-03-04T00:56:52.259Z,88.10
2019-03-04T00:59:22.970Z,87.90
2019-03-04T01:01:53.709Z,87.70
2019-03-04T01:04:24.386Z,87.60
2019-03-04T01:06:55.420Z,87.80
2019-03-04T01:09:27.805Z,87.20
2019-03-04T01:11:58.665Z,87.70
2019-03-04T01:14:29.337Z,87.40
2019-03-04T01:17:00.093Z,88.00
2019-03-04T01:19:30.814Z,88.00
2019-03-04T01:22:01.575Z,87.90
2019-03-04T01:24:32.310Z,87.70
2019-03-04T01:27:04.536Z,87.10
2019-03-04T01:29:35.175Z,87.20
2019-03-04T01:32:05.898Z,87.40
2019-03-04T01:34:36.774Z,88.00
2019-03-04T01:37:09.320Z,88.10
2019-03-04T01:39:40.082Z,87.50
2019-03-04T01:42:10.825Z,87.40
2019-03-04T01:44:41.490Z,87.60
2019-03-04T01:47:12.242Z,87.30
2019-03-04T01:49:42.910Z,87.80
2019-03-04T02:08:16.991Z,87.10
2019-03-04T02:10:48.745Z,87.60
2019-03-04T02:13:19.487Z,87.80
2019-03-04T02:15:50.285Z,88.40
2019-03-04T02:18:22.458Z,88.80
2019-03-04T02:20:54.582Z,89.00
2019-03-04T02:23:25.370Z,89.40
2019-03-04T02:26:25.489Z,89.20
2019-03-04T02:28:56.618Z,89.50
2019-03-04T02:31:28.396Z,89.70
2019-03-04T02:33:59.172Z,89.70
2019-03-04T02:36:30.751Z,90.00
2019-03-04T02:39:05.016Z,90.00
2019-03-04T02:41:38.867Z,89.90
2019-03-04T02:44:10.126Z,89.80
2019-03-04T02:46:40.930Z,89.40
2019-03-04T02:49:11.679Z,89.00
2019-03-04T02:51:42.422Z,89.10
2019-03-04T02:54:13.187Z,88.80
2019-03-04T02:56:43.942Z,88.20
2019-03-04T02:59:14.614Z,87.80
2019-03-04T03:01:45.267Z,87.20
2019-03-04T03:04:16.021Z,87.10
2019-03-04T03:06:46.827Z,86.40
2019-03-04T03:09:17.673Z,85.30
2019-03-04T03:11:48.685Z,85.10
2019-03-04T03:14:20.459Z,85.00
2019-03-04T03:16:51.206Z,84.70
2019-03-04T03:19:21.984Z,85.00
2019-03-04T03:21:52.718Z,84.70
2019-03-04T03:24:24.352Z,84.40
2019-03-04T03:26:55.175Z,84.50
2019-03-04T03:29:26.738Z,85.00
2019-03-04T03:31:57.547Z,84.90
2019-03-04T03:34:29.235Z,84.70
2019-03-04T03:37:01.658Z,84.40
2019-03-04T03:39:32.616Z,84.20
2019-03-04T03:42:03.605Z,84.20
2019-03-04T03:44:34.337Z,83.80
2019-03-04T03:47:04.995Z,84.00
2019-03-04T03:49:35.894Z,83.90
2019-03-04T03:52:06.873Z,84.00
2019-03-04T03:54:37.559Z,83.10
2019-03-04T03:57:08.306Z,82.50
2019-03-04T03:59:38.980Z,81.80
2019-03-04T04:02:09.703Z,80.30
2019-03-04T04:04:40.489Z,80.80
2019-03-04T04:07:11.231Z,80.90
2019-03-04T04:09:42.027Z,80.60
2019-03-04T04:12:12.873Z,80.70
2019-03-04T04:14:43.526Z,80.60
2019-03-04T04:17:14.201Z,80.70
2019-03-04T04:19:44.977Z,79.10
2019-03-04T04:22:17.280Z,79.00
2019-03-04T04:24:48.078Z,79.20
2019-03-04T04:27:18.832Z,78.60
2019-03-04T04:29:49.590Z,77.50
2019-03-04T04:32:20.328Z,78.10
2019-03-04T04:34:50.969Z,78.10
2019-03-04T04:37:21.833Z,78.10
2019-03-04T04:39:52.517Z,78.30
2019-03-04T04:42:23.246Z,78.40
2019-03-04T04:44:53.894Z,79.30
2019-03-04T04:47:24.671Z,83.00
2019-03-04T04:49:55.380Z,84.30
2019-03-04T04:52:26.524Z,84.10
2019-03-04T04:54:57.328Z,85.00
2019-03-04T04:57:30.196Z,85.70
2019-03-04T05:00:00.900Z,86.30
2019-03-04T05:02:31.882Z,86.50
2019-03-04T05:05:02.498Z,86.40
2019-03-04T05:07:33.423Z,88.80
2019-03-04T05:10:04.571Z,89.10
2019-03-04T05:12:35.272Z,92.50
2019-03-04T05:15:07.322Z,93.60
2019-03-04T05:17:39.696Z,94.70
2019-03-04T05:20:13.591Z,95.20
2019-03-04T05:22:44.815Z,95.70
2019-03-04T05:25:15.518Z,96.10
2019-03-04T05:27:46.551Z,96.30
2019-03-04T05:30:18.587Z,96.50
2019-03-04T05:32:49.284Z,97.00
2019-03-04T05:35:19.972Z,96.90
2019-03-04T05:37:50.863Z,97.00
2019-03-04T05:40:21.662Z,97.20
2019-03-04T05:42:53.006Z,97.10
2019-03-04T05:45:23.850Z,97.10
2019-03-04T05:47:54.575Z,97.70
2019-03-04T05:50:25.303Z,97.70
2019-03-04T05:52:56.011Z,97.70
2019-03-04T05:55:26.667Z,97.00
2019-03-04T05:57:57.374Z,96.70
2019-03-04T06:00:30.395Z,96.90
2019-03-04T06:03:01.195Z,96.60
2019-03-04T06:05:51.889Z,96.10
2019-03-04T06:08:10.810Z,95.90
2019-03-04T06:10:41.930Z,95.60
2019-03-04T06:13:12.809Z,95.30
2019-03-04T06:15:43.518Z,95.40
2019-03-04T06:18:14.251Z,95.40
2019-03-04T06:20:45.286Z,95.30
2019-03-04T06:23:16.074Z,95.20
2019-03-04T06:25:46.903Z,94.60
2019-03-04T06:28:17.614Z,94.20
2019-03-04T06:30:49.331Z,93.70
2019-03-04T06:33:20.183Z,93.50
2019-03-04T06:35:50.962Z,93.70
2019-03-04T06:38:21.929Z,93.10
2019-03-04T06:40:52.960Z,93.30
2019-03-04T06:43:23.819Z,93.20
2019-03-04T06:45:54.814Z,92.90
2019-03-04T06:48:25.775Z,92.90
2019-03-04T06:50:58.136Z,92.60
2019-03-04T06:53:34.004Z,92.40
2019-03-04T06:56:31.706Z,92.30
2019-03-04T06:59:06.866Z,92.20
2019-03-04T07:01:46.008Z,92.00
2019-03-04T07:04:44.211Z,91.30
2019-03-04T07:07:15.017Z,91.10
2019-03-04T07:09:47.462Z,90.50
2019-03-04T07:12:18.420Z,90.70
2019-03-04T07:14:49.365Z,90.30
2019-03-04T07:17:20.230Z,90.70
2019-03-04T07:20:03.356Z,90.90
2019-03-04T07:22:35.297Z,90.90
2019-03-04T07:25:06.657Z,90.80
2019-03-04T07:27:37.399Z,90.80
2019-03-04T07:30:09.557Z,90.90
2019-03-04T07:32:40.987Z,90.90
2019-03-04T07:35:11.995Z,91.30
2019-03-04T07:37:42.751Z,91.30
2019-03-04T07:40:16.319Z,91.40
2019-03-04T07:42:46.847Z,91.60
2019-03-04T07:45:17.646Z,91.80
2019-03-04T07:47:50.287Z,92.00
2019-03-04T07:50:21.160Z,92.20
2019-03-04T07:52:57.703Z,91.80
2019-03-04T07:55:28.501Z,91.80
2019-03-04T07:57:59.861Z,92.00
2019-03-04T08:00:31.026Z,92.50
2019-03-04T08:03:01.797Z,92.90
2019-03-04T08:05:34.008Z,93.30
2019-03-04T08:08:04.823Z,93.70
2019-03-04T08:11:12.097Z,94.30
2019-03-04T08:13:46.726Z,95.30
2019-03-04T08:16:17.535Z,96.80
2019-03-04T08:18:48.377Z,96.80
2019-03-04T08:21:19.118Z,96.70
2019-03-04T08:23:50.000Z,97.00
2019-03-04T08:26:20.797Z,97.00
2019-03-04T08:28:51.611Z,96.40
2019-03-04T08:31:22.467Z,96.60
2019-03-04T08:33:53.322Z,96.60
2019-03-04T08:36:25.713Z,96.60
2019-03-04T08:38:56.468Z,96.80
2019-03-04T08:41:27.198Z,96.50
2019-03-04T08:44:00.021Z,96.70
2019-03-04T08:46:30.723Z,96.80
2019-03-04T08:49:01.416Z,96.70
2019-03-04T08:51:33.176Z,96.70
2019-03-04T08:54:03.941Z,97.00
2019-03-04T08:56:34.562Z,97.10
2019-03-04T08:59:05.286Z,97.00
2019-03-04T09:01:35.973Z,97.10
2019-03-04T09:04:06.757Z,97.40
2019-03-04T09:06:37.472Z,97.20
2019-03-04T09:09:08.506Z,96.70
2019-03-04T09:11:39.402Z,96.70
2019-03-04T09:14:10.209Z,96.60
2019-03-04T09:16:41.439Z,96.70
2019-03-04T09:19:13.734Z,96.90
2019-03-04T09:21:44.483Z,96.30
2019-03-04T09:24:15.224Z,95.90
2019-03-04T09:26:45.954Z,96.20
2019-03-04T09:29:17.852Z,96.50
2019-03-04T09:31:48.661Z,96.70
2019-03-04T09:34:21.024Z,96.40
2019-03-04T09:36:51.792Z,96.00
2019-03-04T09:39:22.585Z,96.10
2019-03-04T09:41:56.886Z,96.30
2019-03-04T09:44:27.524Z,96.40
2019-03-04T09:46:58.379Z,96.50
2019-03-04T09:49:29.162Z,96.20
2019-03-04T09:51:59.903Z,95.60
2019-03-04T09:54:30.726Z,95.90
2019-03-04T09:57:01.465Z,95.80
2019-03-04T09:59:33.213Z,95.10
2019-03-04T10:02:10.624Z,94.10
2019-03-04T10:05:15.811Z,93.70
2019-03-04T10:08:35.375Z,93.90
2019-03-04T10:11:54.638Z,92.90
2019-03-04T10:15:21.087Z,92.70
2019-03-04T10:18:11.066Z,92.90
2019-03-04T10:21:29.497Z,93.40
2019-03-04T10:24:50.395Z,92.90
2019-03-04T10:27:50.332Z,92.30
2019-03-04T10:31:00.602Z,92.50
2019-03-04T10:34:16.731Z,92.60
2019-03-04T10:37:22.849Z,91.90
2019-03-04T10:40:34.194Z,91.50
2019-03-04T10:43:54.962Z,90.80
2019-03-04T10:46:54.626Z,89.10
2019-03-04T10:49:26.853Z,87.80
2019-03-04T10:51:57.537Z,87.80
2019-03-04T10:54:28.176Z,87.80
2019-03-04T10:56:58.856Z,88.40
2019-03-04T10:59:29.561Z,90.00
2019-03-04T11:02:00.290Z,86.20
2019-03-04T11:04:31.035Z,85.00
2019-03-04T11:07:01.771Z,83.70
2019-03-04T11:09:32.519Z,82.90
2019-03-04T11:12:03.287Z,84.40
2019-03-04T11:14:34.990Z,83.40
2019-03-04T11:17:05.696Z,82.80
2019-03-04T11:19:36.607Z,84.30
2019-03-04T11:22:07.361Z,85.00
2019-03-04T11:24:38.100Z,84.30
2019-03-04T11:27:08.815Z,86.30
2019-03-04T11:29:40.598Z,87.60
2019-03-04T11:32:11.295Z,88.10
2019-03-04T11:34:42.765Z,87.50
2019-03-04T11:37:13.523Z,87.20
2019-03-04T11:39:56.457Z,86.20
2019-03-04T11:42:27.061Z,87.40
2019-03-04T11:44:57.832Z,87.50
2019-03-04T11:47:28.527Z,86.60
2019-03-04T11:49:59.319Z,85.70
2019-03-04T11:52:30.030Z,84.30
2019-03-04T11:55:02.297Z,83.50
2019-03-04T11:57:33.204Z,80.20
2019-03-04T12:00:06.042Z,78.50
2019-03-04T12:02:39.372Z,77.90
2019-03-04T12:05:10.868Z,78.40
2019-03-04T12:07:41.559Z,78.60
2019-03-04T12:10:13.143Z,80.10
2019-03-04T12:12:43.858Z,78.00
2019-03-04T12:15:15.799Z,77.70
2019-03-04T12:17:46.575Z,80.40
2019-03-04T12:20:17.808Z,78.90
2019-03-04T12:22:48.645Z,78.30
2019-03-04T12:25:19.470Z,75.00
2019-03-04T12:27:50.190Z,74.20
2019-03-04T12:30:20.923Z,73.60
2019-03-04T12:32:52.210Z,74.90
2019-03-04T12:35:23.123Z,71.80
2019-03-04T12:37:53.827Z,71.60
2019-03-04T12:40:24.656Z,74.20
2019-03-04T12:42:55.305Z,71.80
2019-03-04T12:45:33.972Z,70.20
2019-03-04T12:47:59.534Z,70.80
2019-03-04T12:50:30.275Z,68.80
2019-03-04T12:53:00.987Z,65.90
2019-03-04T12:55:32.647Z,62.00
2019-03-04T12:58:03.391Z,61.70
2019-03-04T13:00:34.255Z,59.70
2019-03-04T13:03:05.066Z,58.00
2019-03-04T13:05:38.225Z,58.50
2019-03-04T13:08:08.986Z,58.20
2019-03-04T13:10:39.742Z,57.30
2019-03-04T13:13:10.458Z,54.90
2019-03-04T13:15:41.205Z,52.00
2019-03-04T13:18:16.305Z,54.20
2019-03-04T13:20:46.378Z,54.70
2019-03-04T13:23:17.079Z,54.50
2019-03-04T13:25:48.479Z,53.40
2019-03-04T13:28:19.263Z,54.70
2019-03-04T13:30:50.014Z,56.00
2019-03-04T13:33:20.783Z,52.50
2019-03-04T13:35:51.533Z,51.10
2019-03-04T13:38:24.241Z,51.10
2019-03-04T13:40:54.975Z,51.50
2019-03-04T13:43:25.860Z,52.60
2019-03-04T13:45:56.965Z,52.30
2019-03-04T13:48:29.243Z,52.60
2019-03-04T13:51:00.094Z,54.00
2019-03-04T13:53:30.816Z,53.70
2019-03-04T13:56:01.552Z,52.10
2019-03-04T13:58:32.269Z,55.30
2019-03-04T14:01:03.130Z,55.30
2019-03-04T14:03:33.932Z,52.70
2019-03-04T14:06:04.718Z,53.40
2019-03-04T14:08:37.036Z,54.50
2019-03-04T14:11:09.027Z,53.20
2019-03-04T14:13:39.923Z,52.40
2019-03-04T14:16:11.361Z,52.80
2019-03-04T14:18:43.591Z,49.70
2019-03-04T14:21:14.864Z,49.50
2019-03-04T14:23:45.622Z,48.50
2019-03-04T14:26:16.472Z,48.60
2019-03-04T14:28:47.229Z,50.60
2019-03-04T14:31:18.034Z,50.10
2019-03-04T14:33:48.704Z,48.90
2019-03-04T14:36:19.419Z,49.60
2019-03-04T14:38:50.305Z,49.90
2019-03-04T14:41:21.118Z,47.40
2019-03-04T14:43:51.958Z,48.60
2019-03-04T14:46:26.109Z,51.40
2019-03-04T14:48:57.013Z,56.10
2019-03-04T14:51:27.832Z,58.10
2019-03-04T14:53:59.670Z,59.30
2019-03-04T14:56:30.405Z,57.30
2019-03-04T14:59:10.525Z,58.20
2019-03-04T15:01:34.389Z,60.70
2019-03-04T15:04:05.338Z,59.00
2019-03-04T15:06:36.111Z,62.00
2019-03-04T15:09:10.290Z,64.80
2019-03-04T15:11:41.106Z,64.80
2019-03-04T15:14:11.852Z,66.50
2019-03-04T15:16:42.843Z,64.60
2019-03-04T15:19:13.619Z,62.50
2019-03-04T15:21:45.992Z,57.80
2019-03-04T15:24:17.570Z,58.00
2019-03-04T15:26:48.350Z,58.20
2019-03-04T15:29:19.556Z,60.90
2019-03-04T15:31:51.990Z,62.60
2019-03-04T15:34:23.685Z,65.20
2019-03-04T15:36:55.220Z,69.10
2019-03-04T15:39:31.627Z,70.70
2019-03-04T15:42:02.585Z,72.70
2019-03-04T15:44:33.848Z,74.50
2019-03-04T15:47:04.615Z,72.60
2019-03-04T15:49:35.395Z,71.20
2019-03-04T15:52:06.871Z,71.80
2019-03-04T15:54:39.767Z,69.70
2019-03-04T15:57:12.883Z,66.50
2019-03-04T15:59:44.970Z,65.20
2019-03-04T16:02:25.097Z,63.80
2019-03-04T16:04:57.527Z,61.50
2019-03-04T16:07:28.353Z,60.70
2019-03-04T16:09:59.107Z,64.00
2019-03-04T16:12:31.664Z,68.80
2019-03-04T16:15:02.658Z,71.50
2019-03-04T16:17:36.323Z,73.70
2019-03-04T16:20:15.935Z,75.40
2019-03-04T16:22:42.832Z,75.90
2019-03-04T16:25:13.408Z,76.20
2019-03-04T16:27:44.741Z,77.10
2019-03-04T16:30:17.588Z,77.70
2019-03-04T16:32:48.604Z,77.80
2019-03-04T16:35:19.704Z,78.20
2019-03-04T16:37:52.024Z,77.50
2019-03-04T16:40:22.779Z,78.00
2019-03-04T16:42:53.621Z,78.30
2019-03-04T16:45:24.579Z,78.50
2019-03-04T16:47:56.278Z,78.50
2019-03-04T16:50:27.162Z,79.00
2019-03-04T16:52:58.073Z,79.00
2019-03-04T16:55:31.182Z,79.30
2019-03-04T16:58:01.935Z,79.40
2019-03-04T17:00:32.772Z,79.70
2019-03-04T17:03:03.606Z,80.00
2019-03-04T17:05:34.389Z,80.40
2019-03-04T17:08:05.694Z,81.50
2019-03-04T17:10:36.496Z,82.00
2019-03-04T17:13:07.352Z,83.20
2019-03-04T17:15:38.380Z,83.70
2019-03-04T17:18:09.365Z,84.80
2019-03-04T17:20:40.053Z,85.20
2019-03-04T17:23:10.919Z,85.50
2019-03-04T17:25:41.709Z,85.50
2019-03-04T17:28:14.290Z,85.90
2019-03-04T17:30:45.311Z,86.80
2019-03-04T17:33:16.281Z,87.30
2019-03-04T17:35:48.130Z,88.00
2019-03-04T17:38:19.025Z,88.00
2019-03-04T17:40:49.811Z,88.50
2019-03-04T17:43:20.742Z,89.00
2019-03-04T17:45:51.646Z,89.30
2019-03-04T17:48:22.417Z,89.20
2019-03-04T17:50:53.247Z,89.10
2019-03-04T17:53:24.181Z,89.50
2019-03-04T17:55:54.962Z,89.70
2019-03-04T17:58:26.107Z,89.90
2019-03-04T18:00:57.210Z,90.00
2019-03-04T18:03:28.179Z,90.10
2019-03-04T18:06:00.639Z,90.10
2019-03-04T18:08:32.921Z,90.10
2019-03-04T18:11:04.349Z,90.40
2019-03-04T18:13:35.594Z,90.60
2019-03-04T18:16:09.019Z,90.80
2019-03-04T18:18:39.605Z,90.90
2019-03-04T18:21:12.219Z,91.00
2019-03-04T18:23:43.658Z,90.80
2019-03-04T18:26:21.408Z,90.90
2019-03-04T18:29:34.871Z,91.00
2019-03-04T18:32:26.113Z,91.10
2019-03-04T18:35:22.301Z,91.10
2019-03-04T18:38:24.907Z,91.10
2019-03-04T18:41:41.605Z,91.00
2019-03-04T18:44:49.062Z,91.00
2019-03-04T18:47:45.366Z,90.80
2019-03-04T18:50:16.426Z,90.80
2019-03-04T18:52:47.190Z,90.80
2019-03-04T18:55:18.040Z,90.70
2019-03-04T18:57:50.093Z,90.40
2019-03-04T19:00:23.798Z,90.30
2019-03-04T19:02:54.495Z,90.30
2019-03-04T19:05:25.668Z,90.40
2019-03-04T19:07:56.349Z,90.50
2019-03-04T19:10:27.299Z,90.40
2019-03-04T19:12:58.226Z,90.30
2019-03-04T19:15:29.018Z,90.10
2019-03-04T19:18:01.287Z,90.00
2019-03-04T19:20:32.272Z,89.00
2019-03-04T19:23:03.246Z,89.20
2019-03-04T19:25:34.072Z,89.00
2019-03-04T19:28:04.835Z,89.60
2019-03-04T19:30:35.704Z,89.80
2019-03-04T19:33:08.393Z,90.00
2019-03-04T19:35:39.326Z,89.90
2019-03-04T19:38:10.909Z,90.10
2019-03-04T19:40:42.151Z,90.50
2019-03-04T19:43:13.173Z,90.50
2019-03-04T19:45:44.279Z,90.60
2019-03-04T19:48:15.446Z,90.70
2019-03-04T19:50:46.334Z,90.70
2019-03-04T19:53:18.720Z,91.00
2019-03-04T19:55:49.867Z,90.90
2019-03-04T19:58:20.621Z,91.10
2019-03-04T20:00:51.670Z,91.20
2019-03-04T20:03:22.835Z,91.30
2019-03-04T20:05:53.772Z,91.40
2019-03-04T20:08:25.748Z,91.40
2019-03-04T20:10:56.528Z,91.30
2019-03-04T20:13:27.502Z,91.50
2019-03-04T20:15:59.222Z,91.60
2019-03-04T20:18:29.977Z,91.80
2019-03-04T20:21:00.783Z,92.00
2019-03-04T20:23:31.623Z,92.10
2019-03-04T20:26:03.980Z,92.30
2019-03-04T20:28:34.826Z,92.30
2019-03-04T20:31:07.130Z,92.10
2019-03-04T20:33:39.366Z,92.20
2019-03-04T20:36:11.149Z,92.50
2019-03-04T20:38:44.709Z,92.50
2019-03-04T20:41:15.549Z,92.60
2019-03-04T20:43:46.470Z,92.80
2019-03-04T20:46:17.946Z,92.60
2019-03-04T20:48:48.902Z,92.60
2019-03-04T20:51:19.756Z,92.60
2019-03-04T20:53:51.658Z,92.70
2019-03-04T20:56:22.433Z,92.80
2019-03-04T20:58:54.750Z,92.80
2019-03-04T21:01:26.618Z,92.90
2019-03-04T21:03:57.674Z,92.80
2019-03-04T21:06:28.483Z,92.80
2019-03-04T21:08:59.976Z,93.10
2019-03-04T21:11:33.198Z,92.80
2019-03-04T21:14:04.526Z,92.80
2019-03-04T21:16:35.375Z,92.90
2019-03-04T21:19:06.189Z,92.90
2019-03-04T21:21:37.038Z,92.80
2019-03-04T21:24:09.326Z,92.90
2019-03-04T21:26:43.400Z,93.00
2019-03-04T21:29:50.918Z,92.90
2019-03-04T21:32:52.230Z,92.90
2019-03-04T21:36:04.970Z,92.90
2019-03-04T21:38:35.920Z,93.00
2019-03-04T21:41:44.239Z,93.00
2019-03-04T21:45:15.632Z,92.80
2019-03-04T21:47:50.115Z,92.80
2019-03-04T21:50:25.439Z,92.50
2019-03-04T21:53:12.899Z,92.50
2019-03-04T21:56:20.143Z,92.40
2019-03-04T21:58:51.019Z,92.00
2019-03-04T22:01:26.401Z,91.80
2019-03-04T22:03:58.758Z,91.70
2019-03-04T22:06:31.218Z,91.40
2019-03-04T22:09:02.166Z,91.30
2019-03-04T22:11:34.893Z,91.30
2019-03-04T22:14:05.807Z,91.20
2019-03-04T22:16:36.662Z,90.60
2019-03-04T22:19:07.389Z,90.50
2019-03-04T22:21:38.252Z,90.50
2019-03-04T22:24:09.076Z,90.30
2019-03-04T22:26:39.810Z,90.10
2019-03-04T22:29:10.674Z,90.10
2019-03-04T22:31:41.487Z,90.10
2019-03-04T22:34:12.265Z,90.00
2019-03-04T22:36:43.373Z,89.70
2019-03-04T22:39:14.157Z,89.20
2019-03-04T22:41:45.037Z,88.90
2019-03-04T22:44:15.845Z,87.60
2019-03-04T22:46:46.732Z,87.90
2019-03-04T22:49:17.464Z,87.70
2019-03-04T22:51:48.224Z,88.10
2019-03-04T22:54:19.005Z,88.00
2019-03-04T22:56:49.783Z,88.00
2019-03-04T22:59:20.889Z,88.20
2019-03-04T23:02:04.901Z,88.20
2019-03-04T23:04:46.205Z,88.40
2019-03-04T23:07:25.414Z,88.20
2019-03-04T23:10:17.402Z,87.90
2019-03-04T23:13:13.991Z,88.10
2019-03-04T23:15:46.731Z,88.50
2019-03-04T23:18:17.549Z,88.10
2019-03-04T23:20:49.247Z,88.20
2019-03-04T23:23:19.924Z,88.60
2019-03-04T23:25:50.821Z,88.90
2019-03-04T23:28:21.630Z,89.10
2019-03-04T23:30:52.426Z,88.90
2019-03-04T23:33:24.663Z,89.00
2019-03-04T23:35:55.418Z,88.90
2019-03-04T23:38:26.061Z,88.40
2019-03-04T23:40:58.325Z,88.20
2019-03-04T23:43:29.186Z,88.60
2019-03-04T23:45:59.956Z,88.60
2019-03-04T23:48:30.746Z,88.70
2019-03-04T23:51:01.602Z,89.10
2019-03-04T23:53:32.828Z,89.20
2019-03-04T23:56:03.555Z,89.20
2019-03-04T23:58:34.349Z,89.00
